createdAt,value
2019-05-12T00:00:20.136Z,88.26
2019-05-12T00:02:48.711Z,88.14
2019-05-12T00:05:18.534Z,88.19
2019-05-12T00:07:48.773Z,88.28
2019-05-12T00:10:17.909Z,88.17
2019-05-12T00:12:48.273Z,88.03
2019-05-12T00:15:19.380Z,87.87
2019-05-12T00:17:48.160Z,88.07
2019-05-12T00:20:18.089Z,87.90
2019-05-12T00:22:48.809Z,87.15
2019-05-12T00:25:18.127Z,86.77
2019-05-12T00:27:48.707Z,86.24
2019-05-12T00:30:33.636Z,85.65
2019-05-12T00:33:03.033Z,84.55
2019-05-12T00:35:31.514Z,83.41
2019-05-12T00:38:00.003Z,84.10
2019-05-12T00:40:28.396Z,83.93
2019-05-12T00:42:57.735Z,84.88
2019-05-12T00:45:28.927Z,84.92
2019-05-12T00:47:58.194Z,85.07
2019-05-12T00:50:28.995Z,84.92
2019-05-12T00:52:57.917Z,85.53
2019-05-12T00:55:28.769Z,85.43
2019-05-12T00:57:58.210Z,85.37
2019-05-12T01:00:29.278Z,85.83
2019-05-12T01:02:58.137Z,85.72
2019-05-12T01:05:29.159Z,84.83
2019-05-12T01:07:58.366Z,84.96
2019-05-12T01:10:28.601Z,85.12
2019-05-12T01:12:58.207Z,84.68
2019-05-12T01:15:28.623Z,85.13
2019-05-12T01:17:58.622Z,85.29
2019-05-12T01:20:28.402Z,84.94
2019-05-12T01:22:57.918Z,85.11
2019-05-12T01:25:28.784Z,85.67
2019-05-12T01:27:58.924Z,85.26
2019-05-12T01:30:28.416Z,85.90
2019-05-12T01:32:58.068Z,85.78
2019-05-12T01:35:28.111Z,85.93
2019-05-12T01:37:58.728Z,85.84
2019-05-12T01:40:28.531Z,85.46
2019-05-12T01:42:58.204Z,85.23
2019-05-12T01:45:28.745Z,84.30
2019-05-12T01:47:58.986Z,83.82
2019-05-12T01:50:28.248Z,84.77
2019-05-12T01:52:59.934Z,84.79
2019-05-12T01:55:28.454Z,83.16
2019-05-12T01:57:57.700Z,83.21
2019-05-12T02:00:28.358Z,83.01
2019-05-12T02:02:58.433Z,83.33
2019-05-12T02:05:27.973Z,82.34
2019-05-12T02:07:58.819Z,82.14
2019-05-12T02:10:28.701Z,81.66
2019-05-12T02:12:59.400Z,81.99
2019-05-12T02:15:27.999Z,81.34
2019-05-12T02:17:58.610Z,81.84
2019-05-12T02:20:28.743Z,79.78
2019-05-12T02:22:58.327Z,80.79
2019-05-12T02:25:28.772Z,79.82
2019-05-12T02:27:58.392Z,78.94
2019-05-12T02:30:30.406Z,80.52
2019-05-12T02:32:59.878Z,78.54
2019-05-12T02:35:27.251Z,78.42
2019-05-12T02:37:55.639Z,77.47
2019-05-12T02:40:25.149Z,77.47
2019-05-12T02:42:55.062Z,77.35
2019-05-12T02:45:25.402Z,78.23
2019-05-12T02:47:54.409Z,77.87
2019-05-12T02:50:28.860Z,77.06
2019-05-12T02:52:57.237Z,76.30
2019-05-12T02:55:25.912Z,76.15
2019-05-12T02:57:55.618Z,76.92
2019-05-12T03:00:24.322Z,78.96
2019-05-12T03:02:54.794Z,78.66
2019-05-12T03:05:24.809Z,78.55
2019-05-12T03:07:56.070Z,78.36
2019-05-12T03:10:25.239Z,77.87
2019-05-12T03:12:54.962Z,78.58
2019-05-12T03:15:25.078Z,77.51
2019-05-12T03:17:54.590Z,77.98
2019-05-12T03:20:24.241Z,76.70
2019-05-12T03:22:55.400Z,77.57
2019-05-12T03:25:28.931Z,76.68
2019-05-12T03:27:54.545Z,76.27
2019-05-12T03:30:28.037Z,75.49
2019-05-12T03:32:57.997Z,75.74
2019-05-12T03:35:32.205Z,75.41
2019-05-12T03:37:54.792Z,74.79
2019-05-12T03:40:24.934Z,74.16
2019-05-12T03:42:54.878Z,74.63
2019-05-12T03:45:25.141Z,75.70
2019-05-12T03:47:54.794Z,74.55
2019-05-12T03:50:24.475Z,76.16
2019-05-12T03:52:56.443Z,75.29
2019-05-12T03:55:31.665Z,76.89
2019-05-12T03:57:55.119Z,76.73
2019-05-12T04:00:24.687Z,75.90
2019-05-12T04:02:55.601Z,76.29
2019-05-12T04:05:24.309Z,76.91
2019-05-12T04:07:54.658Z,77.58
2019-05-12T04:10:24.743Z,77.78
2019-05-12T04:12:54.881Z,76.72
2019-05-12T04:15:25.544Z,76.93
2019-05-12T04:17:54.305Z,78.25
2019-05-12T04:20:25.486Z,76.64
2019-05-12T04:22:54.737Z,77.00
2019-05-12T04:25:24.966Z,76.99
2019-05-12T04:27:54.237Z,77.07
2019-05-12T04:30:24.964Z,78.51
2019-05-12T04:32:55.270Z,78.38
2019-05-12T04:35:25.184Z,77.71
2019-05-12T04:37:55.377Z,77.33
2019-05-12T04:40:24.803Z,76.01
2019-05-12T04:42:54.815Z,76.06
2019-05-12T04:45:25.496Z,75.74
2019-05-12T04:47:55.210Z,77.73
2019-05-12T04:50:24.692Z,77.40
2019-05-12T04:52:54.862Z,76.31
2019-05-12T04:55:25.624Z,75.46
2019-05-12T04:57:54.547Z,76.81
2019-05-12T05:00:25.740Z,76.82
2019-05-12T05:02:54.473Z,76.28
2019-05-12T05:05:24.822Z,75.58
2019-05-12T05:07:54.850Z,76.50
2019-05-12T05:10:24.928Z,77.77
2019-05-12T05:12:54.353Z,77.92
2019-05-12T05:15:24.955Z,77.75
2019-05-12T05:17:54.560Z,77.31
2019-05-12T05:20:23.985Z,77.08
2019-05-12T05:22:54.201Z,76.91
2019-05-12T05:25:23.680Z,77.78
2019-05-12T05:27:53.282Z,75.75
2019-05-12T05:30:24.204Z,77.84
2019-05-12T05:32:53.582Z,75.73
2019-05-12T05:35:23.874Z,77.17
2019-05-12T05:37:53.871Z,76.84
2019-05-12T05:40:26.019Z,75.33
2019-05-12T05:42:54.164Z,75.18
2019-05-12T05:45:25.937Z,76.41
2019-05-12T05:47:54.457Z,75.05
2019-05-12T05:50:25.199Z,73.06
2019-05-12T05:52:54.272Z,75.13
2019-05-12T05:55:23.325Z,75.82
2019-05-12T05:57:53.512Z,75.94
2019-05-12T06:00:26.015Z,76.21
2019-05-12T06:02:54.457Z,76.33
2019-05-12T06:05:26.282Z,76.71
2019-05-12T06:07:53.581Z,76.42
2019-05-12T06:10:34.756Z,75.71
2019-05-12T06:12:54.138Z,76.39
2019-05-12T06:15:23.544Z,76.86
2019-05-12T06:17:53.830Z,75.49
2019-05-12T06:20:23.814Z,75.33
2019-05-12T06:22:54.602Z,75.44
2019-05-12T06:25:26.442Z,75.33
2019-05-12T06:28:00.055Z,76.02
2019-05-12T06:30:25.629Z,75.41
2019-05-12T06:32:54.702Z,73.61
2019-05-12T06:35:24.095Z,75.43
2019-05-12T06:38:00.110Z,74.94
2019-05-12T06:40:24.368Z,74.43
2019-05-12T06:42:56.975Z,73.83
2019-05-12T06:45:23.552Z,72.89
2019-05-12T06:47:54.105Z,72.34
2019-05-12T06:50:23.723Z,71.07
2019-05-12T06:52:53.115Z,71.18
2019-05-12T06:55:23.696Z,72.35
2019-05-12T06:57:51.568Z,69.51
2019-05-12T07:00:22.219Z,70.70
2019-05-12T07:02:54.749Z,70.14
2019-05-12T07:05:20.320Z,70.26
2019-05-12T07:07:48.704Z,69.51
2019-05-12T07:10:35.474Z,68.76
2019-05-12T07:12:58.896Z,69.25
2019-05-12T07:15:17.717Z,69.41
2019-05-12T07:17:49.807Z,68.38
2019-05-12T07:20:17.829Z,67.08
2019-05-12T07:22:48.814Z,68.53
2019-05-12T07:25:17.219Z,68.13
2019-05-12T07:27:53.645Z,67.16
2019-05-12T07:30:18.744Z,67.02
2019-05-12T07:32:51.169Z,67.11
2019-05-12T07:35:17.241Z,67.35
2019-05-12T07:37:46.763Z,68.82
2019-05-12T07:40:19.013Z,70.14
2019-05-12T07:42:45.903Z,68.69
2019-05-12T07:45:20.616Z,70.12
2019-05-12T07:47:45.022Z,69.49
2019-05-12T07:50:16.186Z,70.65
2019-05-12T07:52:44.245Z,69.70
2019-05-12T07:55:14.721Z,71.07
2019-05-12T07:57:52.839Z,70.38
2019-05-12T08:00:21.313Z,68.56
2019-05-12T08:02:44.339Z,68.48
2019-05-12T08:05:19.391Z,68.33
2019-05-12T08:07:44.712Z,70.36
2019-05-12T08:10:19.658Z,67.43
2019-05-12T08:12:44.583Z,65.81
2019-05-12T08:15:14.206Z,68.67
2019-05-12T08:17:44.114Z,68.46
2019-05-12T08:20:13.476Z,67.29
2019-05-12T08:22:43.786Z,66.54
2019-05-12T08:25:13.407Z,65.16
2019-05-12T08:27:45.237Z,66.09
2019-05-12T08:30:13.855Z,65.33
2019-05-12T08:32:44.343Z,64.97
2019-05-12T08:35:13.960Z,64.54
2019-05-12T08:37:44.107Z,64.60
2019-05-12T08:40:15.379Z,63.18
2019-05-12T08:42:43.632Z,62.56
2019-05-12T08:45:15.269Z,61.81
2019-05-12T08:47:44.068Z,59.86
2019-05-12T08:50:13.636Z,60.25
2019-05-12T08:52:44.228Z,60.27
2019-05-12T08:55:16.385Z,58.38
2019-05-12T08:57:48.966Z,59.36
2019-05-12T09:00:13.446Z,58.80
2019-05-12T09:02:46.091Z,58.51
2019-05-12T09:05:14.278Z,60.32
2019-05-12T09:07:43.543Z,56.61
2019-05-12T09:10:14.159Z,56.48
2019-05-12T09:12:44.181Z,56.63
2019-05-12T09:15:13.596Z,57.19
2019-05-12T09:17:49.085Z,57.04
2019-05-12T09:20:13.728Z,54.88
2019-05-12T09:22:43.268Z,54.64
2019-05-12T09:25:14.119Z,55.23
2019-05-12T09:27:45.664Z,55.76
2019-05-12T09:30:14.171Z,54.68
2019-05-12T09:32:48.640Z,54.81
2019-05-12T09:35:14.421Z,54.46
2019-05-12T09:37:44.118Z,53.46
2019-05-12T09:40:14.923Z,53.91
2019-05-12T09:42:44.058Z,53.44
2019-05-12T09:45:13.833Z,54.10
2019-05-12T09:47:43.607Z,54.03
2019-05-12T09:50:18.339Z,54.91
2019-05-12T09:52:44.099Z,55.11
2019-05-12T09:55:14.817Z,54.59
2019-05-12T09:57:45.039Z,54.11
2019-05-12T10:00:13.872Z,53.93
2019-05-12T10:02:43.595Z,53.30
2019-05-12T10:05:14.496Z,53.50
2019-05-12T10:07:44.553Z,53.67
2019-05-12T10:10:14.223Z,52.44
2019-05-12T10:12:46.315Z,53.03
2019-05-12T10:15:18.584Z,53.17
2019-05-12T10:17:44.150Z,52.83
2019-05-12T10:20:13.721Z,53.75
2019-05-12T10:22:43.773Z,54.14
2019-05-12T10:25:14.380Z,53.63
2019-05-12T10:27:44.272Z,53.91
2019-05-12T10:30:17.441Z,53.02
2019-05-12T10:32:43.837Z,53.38
2019-05-12T10:35:20.827Z,53.77
2019-05-12T10:37:46.856Z,53.36
2019-05-12T10:40:14.064Z,53.94
2019-05-12T10:42:46.056Z,53.71
2019-05-12T10:45:16.936Z,52.15
2019-05-12T10:47:43.080Z,52.79
2019-05-12T10:50:11.597Z,51.93
2019-05-12T10:52:39.985Z,52.53
2019-05-12T10:55:09.711Z,52.76
2019-05-12T10:57:38.162Z,52.11
2019-05-12T11:00:08.954Z,52.30
2019-05-12T11:02:37.334Z,52.75
2019-05-12T11:05:12.411Z,52.42
2019-05-12T11:07:37.162Z,52.31
2019-05-12T11:10:15.634Z,51.70
2019-05-12T11:12:38.658Z,51.77
2019-05-12T11:15:08.985Z,52.03
2019-05-12T11:17:54.263Z,51.53
2019-05-12T11:20:25.149Z,52.02
2019-05-12T11:22:54.243Z,51.52
2019-05-12T11:25:24.697Z,51.89
2019-05-12T11:27:54.921Z,50.57
2019-05-12T11:30:24.023Z,50.45
2019-05-12T11:32:54.110Z,49.78
2019-05-12T11:35:23.693Z,50.17
2019-05-12T11:37:53.890Z,50.00
2019-05-12T11:40:23.889Z,50.28
2019-05-12T11:42:59.032Z,50.34
2019-05-12T11:45:24.159Z,50.53
2019-05-12T11:47:59.115Z,50.12
2019-05-12T11:50:23.421Z,49.96
2019-05-12T11:52:52.343Z,49.75
2019-05-12T11:55:21.368Z,49.84
2019-05-12T11:57:51.046Z,49.94
2019-05-12T12:00:21.464Z,49.56
2019-05-12T12:02:49.826Z,49.82
2019-05-12T12:05:18.317Z,49.62
2019-05-12T12:07:51.356Z,49.75
2019-05-12T12:10:17.049Z,49.89
2019-05-12T12:12:49.336Z,49.43
2019-05-12T12:15:20.375Z,49.37
2019-05-12T12:17:46.499Z,49.51
2019-05-12T12:20:22.539Z,49.89
2019-05-12T12:22:48.987Z,50.35
2019-05-12T12:25:25.020Z,50.16
2019-05-12T12:27:53.842Z,50.73
2019-05-12T12:30:23.613Z,50.38
2019-05-12T12:32:57.209Z,50.59
2019-05-12T12:35:23.411Z,50.67
2019-05-12T12:37:53.946Z,50.46
2019-05-12T12:40:21.933Z,49.80
2019-05-12T12:42:50.329Z,49.90
2019-05-12T12:45:40.361Z,50.16
2019-05-12T12:48:07.319Z,50.23
2019-05-12T12:50:35.698Z,50.82
2019-05-12T12:53:04.159Z,50.59
2019-05-12T12:55:32.544Z,50.67
2019-05-12T12:58:02.823Z,50.84
2019-05-12T13:00:46.127Z,50.43
2019-05-12T13:03:03.727Z,49.93
2019-05-12T13:05:34.545Z,48.97
2019-05-12T13:08:04.249Z,48.64
2019-05-12T13:10:33.655Z,48.89
2019-05-12T13:13:04.119Z,48.57
2019-05-12T13:15:34.024Z,48.49
2019-05-12T13:18:02.637Z,48.10
2019-05-12T13:20:30.993Z,47.87
2019-05-12T13:22:59.381Z,46.76
2019-05-12T13:25:27.772Z,46.67
2019-05-12T13:27:56.161Z,47.94
2019-05-12T13:30:24.575Z,47.60
2019-05-12T13:32:52.954Z,47.06
2019-05-12T13:35:23.770Z,46.96
2019-05-12T13:37:56.444Z,47.32
2019-05-12T13:40:23.365Z,47.54
2019-05-12T13:42:54.318Z,46.29
2019-05-12T13:45:24.110Z,46.77
2019-05-12T13:47:53.417Z,47.25
2019-05-12T13:50:26.202Z,46.79
2019-05-12T13:52:54.055Z,47.14
2019-05-12T13:55:23.962Z,46.66
2019-05-12T13:57:57.441Z,46.18
2019-05-12T14:00:22.415Z,45.68
2019-05-12T14:02:57.209Z,45.84
2019-05-12T14:05:20.917Z,46.13
2019-05-12T14:07:50.017Z,45.96
2019-05-12T14:10:19.460Z,46.10
2019-05-12T14:12:47.851Z,45.49
2019-05-12T14:15:17.814Z,45.58
2019-05-12T14:17:46.264Z,45.40
2019-05-12T14:20:19.949Z,45.60
2019-05-12T14:22:45.058Z,45.09
2019-05-12T14:25:15.287Z,45.37
2019-05-12T14:27:44.623Z,45.14
2019-05-12T14:30:14.439Z,45.31
2019-05-12T14:32:43.990Z,45.57
2019-05-12T14:35:12.658Z,45.01
2019-05-12T14:37:45.948Z,45.25
2019-05-12T14:40:13.418Z,45.49
2019-05-12T14:42:43.996Z,45.68
2019-05-12T14:45:13.726Z,45.70
2019-05-12T14:47:43.762Z,45.48
2019-05-12T14:50:14.159Z,45.92
2019-05-12T14:52:44.047Z,46.29
2019-05-12T14:55:14.490Z,46.01
2019-05-12T14:57:42.874Z,46.18
2019-05-12T15:00:19.193Z,46.13
2019-05-12T15:02:43.863Z,45.53
2019-05-12T15:05:14.639Z,45.37
2019-05-12T15:07:51.304Z,45.53
2019-05-12T15:10:14.418Z,45.22
2019-05-12T15:12:44.173Z,45.60
2019-05-12T15:15:15.666Z,45.57
2019-05-12T15:17:44.432Z,45.50
2019-05-12T15:20:13.910Z,45.25
2019-05-12T15:22:51.403Z,45.19
2019-05-12T15:25:14.567Z,45.07
2019-05-12T15:27:45.968Z,44.94
2019-05-12T15:30:22.831Z,45.04
2019-05-12T15:32:45.201Z,44.67
2019-05-12T15:35:14.048Z,44.92
2019-05-12T15:37:43.520Z,44.07
2019-05-12T15:40:14.435Z,43.47
2019-05-12T15:42:45.313Z,43.45
2019-05-12T15:45:16.387Z,43.51
2019-05-12T15:47:44.697Z,43.60
2019-05-12T15:50:14.749Z,43.11
2019-05-12T15:52:45.725Z,43.27
2019-05-12T15:55:17.773Z,43.10
2019-05-12T15:57:44.476Z,43.29
2019-05-12T16:00:16.963Z,42.63
2019-05-12T16:02:45.180Z,42.60
2019-05-12T16:05:14.748Z,42.76
2019-05-12T16:07:44.220Z,42.57
2019-05-12T16:10:14.470Z,42.83
2019-05-12T16:12:43.637Z,43.12
2019-05-12T16:15:19.423Z,43.44
2019-05-12T16:17:46.139Z,43.14
2019-05-12T16:20:14.662Z,42.33
2019-05-12T16:22:45.250Z,42.66
2019-05-12T16:25:15.361Z,42.38
2019-05-12T16:27:44.591Z,42.54
2019-05-12T16:30:14.107Z,42.29
2019-05-12T16:32:47.247Z,42.14
2019-05-12T16:35:14.523Z,41.57
2019-05-12T16:37:44.260Z,41.79
2019-05-12T16:40:13.902Z,41.67
2019-05-12T16:42:48.373Z,41.35
2019-05-12T16:45:14.377Z,41.54
2019-05-12T16:47:44.724Z,41.32
2019-05-12T16:50:16.691Z,41.57
2019-05-12T16:52:45.363Z,41.28
2019-05-12T16:55:14.307Z,41.25
2019-05-12T16:57:50.972Z,41.08
2019-05-12T17:00:14.003Z,40.77
2019-05-12T17:02:52.178Z,40.90
2019-05-12T17:05:18.503Z,41.48
2019-05-12T17:07:44.234Z,40.60
2019-05-12T17:10:16.434Z,41.02
2019-05-12T17:12:43.728Z,40.88
2019-05-12T17:15:14.632Z,41.49
2019-05-12T17:17:44.736Z,40.53
2019-05-12T17:20:13.796Z,40.39
2019-05-12T17:22:53.706Z,40.88
2019-05-12T17:25:15.367Z,41.18
2019-05-12T17:27:44.885Z,40.22
2019-05-12T17:30:13.815Z,40.66
2019-05-12T17:32:54.883Z,40.63
2019-05-12T17:35:14.559Z,40.58
2019-05-12T17:37:46.449Z,40.87
2019-05-12T17:40:19.916Z,40.43
2019-05-12T17:42:45.233Z,41.18
2019-05-12T17:45:20.272Z,40.81
2019-05-12T17:47:44.645Z,41.58
2019-05-12T17:50:13.788Z,41.07
2019-05-12T17:52:45.094Z,41.27
2019-05-12T17:55:15.011Z,41.43
2019-05-12T17:57:44.044Z,40.99
2019-05-12T18:00:14.799Z,41.53
2019-05-12T18:02:43.920Z,41.34
2019-05-12T18:05:15.508Z,41.41
2019-05-12T18:07:44.549Z,41.74
2019-05-12T18:10:13.845Z,42.03
2019-05-12T18:12:45.272Z,42.06
2019-05-12T18:15:15.057Z,41.97
2019-05-12T18:17:45.200Z,41.91
2019-05-12T18:20:14.714Z,42.28
2019-05-12T18:22:45.041Z,42.40
2019-05-12T18:25:14.636Z,42.56
2019-05-12T18:27:50.192Z,42.74
2019-05-12T18:30:16.599Z,42.89
2019-05-12T18:32:43.787Z,43.03
2019-05-12T18:35:13.768Z,43.18
2019-05-12T18:37:42.282Z,42.83
2019-05-12T18:40:14.468Z,43.04
2019-05-12T18:42:43.195Z,43.33
2019-05-12T18:45:16.896Z,43.33
2019-05-12T18:47:44.069Z,43.31
2019-05-12T18:50:14.111Z,43.07
2019-05-12T18:52:46.033Z,43.27
2019-05-12T18:55:16.662Z,44.07
2019-05-12T18:57:49.761Z,44.66
2019-05-12T19:00:18.393Z,44.64
2019-05-12T19:02:47.047Z,44.95
2019-05-12T19:05:21.758Z,45.11
2019-05-12T19:07:46.584Z,45.14
2019-05-12T19:10:18.670Z,45.17
2019-05-12T19:12:51.738Z,45.55
2019-05-12T19:15:21.844Z,45.53
2019-05-12T19:17:47.313Z,45.83
2019-05-12T19:20:15.935Z,46.37
2019-05-12T19:22:56.130Z,46.25
2019-05-12T19:25:15.281Z,45.35
2019-05-12T19:27:45.990Z,45.54
2019-05-12T19:30:19.458Z,45.42
2019-05-12T19:32:45.100Z,45.38
2019-05-12T19:35:25.564Z,45.73
2019-05-12T19:37:54.112Z,45.83
2019-05-12T19:40:22.509Z,46.06
2019-05-12T19:42:53.775Z,46.08
2019-05-12T19:45:21.885Z,46.49
2019-05-12T19:47:53.572Z,46.43
2019-05-12T19:50:22.031Z,46.57
2019-05-12T19:52:50.546Z,46.72
2019-05-12T19:55:26.428Z,46.94
2019-05-12T19:57:54.866Z,46.47
2019-05-12T20:00:23.681Z,46.82
2019-05-12T20:02:53.767Z,46.65
2019-05-12T20:05:23.738Z,47.14
2019-05-12T20:07:53.730Z,47.00
2019-05-12T20:10:24.365Z,47.29
2019-05-12T20:12:54.839Z,46.86
2019-05-12T20:15:24.117Z,47.36
2019-05-12T20:17:53.578Z,47.22
2019-05-12T20:20:26.689Z,47.20
2019-05-12T20:22:54.179Z,47.34
2019-05-12T20:25:23.636Z,47.71
2019-05-12T20:28:01.534Z,47.41
2019-05-12T20:30:24.062Z,47.60
2019-05-12T20:32:54.012Z,47.67
2019-05-12T20:35:22.626Z,47.75
2019-05-12T20:37:54.229Z,48.06
2019-05-12T20:40:23.734Z,47.55
2019-05-12T20:43:07.416Z,47.45
2019-05-12T20:45:25.332Z,47.52
2019-05-12T20:47:53.237Z,47.51
2019-05-12T20:50:25.913Z,47.54
2019-05-12T20:52:58.512Z,47.70
2019-05-12T20:55:23.429Z,47.87
2019-05-12T20:57:54.452Z,47.97
2019-05-12T21:00:28.902Z,48.15
2019-05-12T21:02:57.295Z,48.38
2019-05-12T21:05:25.680Z,48.77
2019-05-12T21:07:55.764Z,48.44
2019-05-12T21:10:30.839Z,48.64
2019-05-12T21:12:59.234Z,48.64
2019-05-12T21:15:40.632Z,48.95
2019-05-12T21:18:10.593Z,49.00
2019-05-12T21:20:40.917Z,49.04
2019-05-12T21:23:09.297Z,49.01
2019-05-12T21:25:37.878Z,49.03
2019-05-12T21:28:20.498Z,48.82
2019-05-12T21:30:55.760Z,49.27
2019-05-12T21:33:25.233Z,49.45
2019-05-12T21:36:00.479Z,49.56
2019-05-12T21:38:29.680Z,49.39
2019-05-12T21:41:02.073Z,49.38
2019-05-12T21:43:28.395Z,49.42
2019-05-12T21:46:01.159Z,49.60
2019-05-12T21:48:29.321Z,49.58
2019-05-12T21:50:57.009Z,49.89
2019-05-12T21:53:25.400Z,49.61
2019-05-12T21:55:57.589Z,49.90
2019-05-12T21:58:23.878Z,49.65
2019-05-12T22:01:00.061Z,50.04
2019-05-12T22:03:26.110Z,50.36
2019-05-12T22:05:55.658Z,50.38
2019-05-12T22:08:25.815Z,50.31
2019-05-12T22:10:54.600Z,50.03
2019-05-12T22:13:22.981Z,50.26
2019-05-12T22:15:57.324Z,50.44
2019-05-12T22:18:23.951Z,50.49
2019-05-12T22:21:01.255Z,50.26
2019-05-12T22:23:24.563Z,50.58
2019-05-12T22:25:55.648Z,50.63
2019-05-12T22:28:23.983Z,50.73
2019-05-12T22:30:54.127Z,50.75
2019-05-12T22:33:24.170Z,50.69
2019-05-12T22:36:02.907Z,50.71
2019-05-12T22:38:24.710Z,50.63
2019-05-12T22:40:55.994Z,50.74
2019-05-12T22:43:23.910Z,50.71
2019-05-12T22:45:54.465Z,50.75
2019-05-12T22:48:22.417Z,50.93
2019-05-12T22:50:50.802Z,50.80
2019-05-12T22:53:19.560Z,50.63
2019-05-12T22:55:49.320Z,50.83
2019-05-12T22:58:22.356Z,50.69
2019-05-12T23:00:51.211Z,51.03
2019-05-12T23:03:17.989Z,50.85
2019-05-12T23:05:50.694Z,51.08
2019-05-12T23:08:16.488Z,51.03
2019-05-12T23:10:51.523Z,51.14
2019-05-12T23:13:14.980Z,51.08
2019-05-12T23:15:47.568Z,51.09
2019-05-12T23:18:14.000Z,51.14
2019-05-12T23:20:43.861Z,51.24
2019-05-12T23:23:15.391Z,51.29
2019-05-12T23:25:44.110Z,51.30
2019-05-12T23:28:12.516Z,51.38
2019-05-12T23:30:43.712Z,51.51
2019-05-12T23:33:16.873Z,51.65
2019-05-12T23:35:45.325Z,51.52
2019-05-12T23:38:18.747Z,51.37
2019-05-12T23:40:43.802Z,51.29
2019-05-12T23:43:14.356Z,51.03
2019-05-12T23:45:44.318Z,51.22
2019-05-12T23:48:14.502Z,51.14
2019-05-12T23:50:43.791Z,51.14
2019-05-12T23:53:14.082Z,51.12
2019-05-12T23:55:43.734Z,51.03
2019-05-12T23:58:14.258Z,50.85
